sensor_id;sensor_type;location;lat;lon;timestamp;P1;durP1;ratioP1;P2;durP2;ratioP2
34896;SDS011;43407;51.828;-2.298;2022-09-09T00:01:23;4.85;;;3.72;;
34896;SDS011;43407;51.828;-2.298;2022-09-09T00:06:49;4.13;;;3.73;;
34896;SDS011;43407;51.828;-2.298;2022-09-09T00:09:44;4.30;;;3.53;;
34896;SDS011;43407;51.828;-2.298;2022-09-09T00:12:19;3.78;;;3.30;;
34896;SDS011;43407;51.828;-2.298;2022-09-09T00:15:11;3.97;;;3.10;;
34896;SDS011;43407;51.828;-2.298;2022-09-09T00:18:01;3.38;;;3.08;;
34896;SDS011;43407;51.828;-2.298;2022-09-09T00:20:39;3.35;;;2.90;;
34896;SDS011;43407;51.828;-2.298;2022-09-09T00:25:48;2.80;;;2.60;;
34896;SDS011;43407;51.828;-2.298;2022-09-09T00:28:19;4.47;;;2.65;;
34896;SDS011;43407;51.828;-2.298;2022-09-09T00:30:47;2.60;;;2.40;;
34896;SDS011;43407;51.828;-2.298;2022-09-09T00:33:22;3.13;;;2.47;;
34896;SDS011;43407;51.828;-2.298;2022-09-09T00:35:56;3.07;;;2.27;;
34896;SDS011;43407;51.828;-2.298;2022-09-09T00:38:33;3.75;;;2.30;;
34896;SDS011;43407;51.828;-2.298;2022-09-09T00:41:11;2.90;;;2.40;;
34896;SDS011;43407;51.828;-2.298;2022-09-09T00:43:43;2.72;;;2.10;;
34896;SDS011;43407;51.828;-2.298;2022-09-09T00:59:59;2.17;;;2.00;;
34896;SDS011;43407;51.828;-2.298;2022-09-09T01:05:48;2.58;;;2.38;;
34896;SDS011;43407;51.828;-2.298;2022-09-09T01:11:04;2.60;;;2.38;;
34896;SDS011;43407;51.828;-2.298;2022-09-09T01:13:35;3.50;;;2.45;;
34896;SDS011;43407;51.828;-2.298;2022-09-09T01:16:04;2.22;;;2.10;;
34896;SDS011;43407;51.828;-2.298;2022-09-09T01:24:22;2.85;;;2.45;;
34896;SDS011;43407;51.828;-2.298;2022-09-09T01:26:54;2.30;;;2.10;;
34896;SDS011;43407;51.828;-2.298;2022-09-09T01:29:22;2.83;;;2.30;;
34896;SDS011;43407;51.828;-2.298;2022-09-09T01:31:55;2.60;;;2.30;;
34896;SDS011;43407;51.828;-2.298;2022-09-09T01:34:23;2.85;;;2.65;;
34896;SDS011;43407;51.828;-2.298;2022-09-09T01:37:10;2.85;;;2.53;;
34896;SDS011;43407;51.828;-2.298;2022-09-09T01:39:54;2.60;;;2.40;;
34896;SDS011;43407;51.828;-2.298;2022-09-09T01:42:19;3.03;;;2.50;;
34896;SDS011;43407;51.828;-2.298;2022-09-09T01:44:52;2.58;;;2.38;;
34896;SDS011;43407;51.828;-2.298;2022-09-09T01:47:19;4.40;;;2.85;;
34896;SDS011;43407;51.828;-2.298;2022-09-09T01:49:47;2.60;;;2.40;;
34896;SDS011;43407;51.828;-2.298;2022-09-09T01:52:12;2.40;;;2.25;;
34896;SDS011;43407;51.828;-2.298;2022-09-09T01:54:38;2.40;;;2.20;;
34896;SDS011;43407;51.828;-2.298;2022-09-09T02:00:15;2.25;;;2.08;;
34896;SDS011;43407;51.828;-2.298;2022-09-09T02:07:51;2.50;;;2.30;;
34896;SDS011;43407;51.828;-2.298;2022-09-09T02:12:53;1.95;;;1.85;;
34896;SDS011;43407;51.828;-2.298;2022-09-09T02:15:27;2.33;;;2.10;;
34896;SDS011;43407;51.828;-2.298;2022-09-09T02:17:56;2.47;;;2.28;;
34896;SDS011;43407;51.828;-2.298;2022-09-09T02:20:23;2.22;;;2.13;;
34896;SDS011;43407;51.828;-2.298;2022-09-09T02:22:55;2.72;;;2.42;;
34896;SDS011;43407;51.828;-2.298;2022-09-09T02:25:26;3.53;;;2.67;;
34896;SDS011;43407;51.828;-2.298;2022-09-09T02:28:11;2.72;;;2.53;;
34896;SDS011;43407;51.828;-2.298;2022-09-09T02:30:41;2.60;;;2.40;;
34896;SDS011;43407;51.828;-2.298;2022-09-09T02:33:07;2.72;;;2.53;;
34896;SDS011;43407;51.828;-2.298;2022-09-09T02:35:35;2.70;;;2.50;;
34896;SDS011;43407;51.828;-2.298;2022-09-09T02:38:06;2.78;;;2.58;;
34896;SDS011;43407;51.828;-2.298;2022-09-09T02:40:38;3.85;;;2.60;;
34896;SDS011;43407;51.828;-2.298;2022-09-09T02:43:06;2.97;;;2.70;;
34896;SDS011;43407;51.828;-2.298;2022-09-09T02:45:36;2.60;;;2.40;;
34896;SDS011;43407;51.828;-2.298;2022-09-09T02:48:17;2.60;;;2.30;;
34896;SDS011;43407;51.828;-2.298;2022-09-09T02:53:43;4.15;;;2.90;;
34896;SDS011;43407;51.828;-2.298;2022-09-09T02:56:32;3.45;;;3.15;;
34896;SDS011;43407;51.828;-2.298;2022-09-09T02:59:03;3.22;;;2.83;;
34896;SDS011;43407;51.828;-2.298;2022-09-09T03:01:37;3.33;;;2.60;;
34896;SDS011;43407;51.828;-2.298;2022-09-09T03:04:22;2.90;;;2.60;;
34896;SDS011;43407;51.828;-2.298;2022-09-09T03:06:50;3.47;;;3.00;;
34896;SDS011;43407;51.828;-2.298;2022-09-09T03:09:24;3.85;;;2.88;;
34896;SDS011;43407;51.828;-2.298;2022-09-09T03:11:53;3.22;;;2.92;;
34896;SDS011;43407;51.828;-2.298;2022-09-09T03:14:24;3.30;;;2.63;;
34896;SDS011;43407;51.828;-2.298;2022-09-09T03:16:53;3.75;;;3.13;;
34896;SDS011;43407;51.828;-2.298;2022-09-09T03:19:23;3.20;;;2.85;;
34896;SDS011;43407;51.828;-2.298;2022-09-09T03:21:49;3.13;;;2.88;;
34896;SDS011;43407;51.828;-2.298;2022-09-09T03:24:15;3.35;;;3.05;;
34896;SDS011;43407;51.828;-2.298;2022-09-09T03:26:43;3.35;;;3.05;;
34896;SDS011;43407;51.828;-2.298;2022-09-09T03:29:12;3.63;;;2.97;;
34896;SDS011;43407;51.828;-2.298;2022-09-09T03:31:40;3.03;;;2.70;;
34896;SDS011;43407;51.828;-2.298;2022-09-09T03:34:31;3.58;;;2.97;;
34896;SDS011;43407;51.828;-2.298;2022-09-09T03:36:59;3.53;;;3.22;;
34896;SDS011;43407;51.828;-2.298;2022-09-09T03:39:35;3.05;;;2.75;;
34896;SDS011;43407;51.828;-2.298;2022-09-09T03:42:08;2.90;;;2.70;;
34896;SDS011;43407;51.828;-2.298;2022-09-09T03:44:33;2.53;;;2.33;;
34896;SDS011;43407;51.828;-2.298;2022-09-09T03:47:20;2.60;;;2.40;;
34896;SDS011;43407;51.828;-2.298;2022-09-09T03:49:49;3.42;;;3.13;;
34896;SDS011;43407;51.828;-2.298;2022-09-09T03:52:17;3.10;;;2.80;;
34896;SDS011;43407;51.828;-2.298;2022-09-09T03:54:43;2.97;;;2.78;;
34896;SDS011;43407;51.828;-2.298;2022-09-09T03:57:19;3.05;;;2.85;;
34896;SDS011;43407;51.828;-2.298;2022-09-09T03:59:52;2.70;;;2.50;;
34896;SDS011;43407;51.828;-2.298;2022-09-09T04:02:17;4.55;;;2.63;;
34896;SDS011;43407;51.828;-2.298;2022-09-09T04:04:48;3.20;;;2.63;;
34896;SDS011;43407;51.828;-2.298;2022-09-09T04:07:14;2.70;;;2.50;;
34896;SDS011;43407;51.828;-2.298;2022-09-09T04:09:59;2.92;;;2.72;;
34896;SDS011;43407;51.828;-2.298;2022-09-09T04:12:27;3.15;;;2.42;;
34896;SDS011;43407;51.828;-2.298;2022-09-09T04:14:53;4.07;;;2.65;;
34896;SDS011;43407;51.828;-2.298;2022-09-09T04:17:23;3.10;;;2.38;;
34896;SDS011;43407;51.828;-2.298;2022-09-09T04:19:51;4.50;;;2.50;;
34896;SDS011;43407;51.828;-2.298;2022-09-09T04:22:26;2.45;;;2.22;;
34896;SDS011;43407;51.828;-2.298;2022-09-09T04:24:51;3.40;;;2.75;;
34896;SDS011;43407;51.828;-2.298;2022-09-09T04:27:27;2.55;;;2.25;;
34896;SDS011;43407;51.828;-2.298;2022-09-09T04:29:57;3.17;;;2.88;;
34896;SDS011;43407;51.828;-2.298;2022-09-09T04:32:33;6.00;;;2.78;;
34896;SDS011;43407;51.828;-2.298;2022-09-09T04:35:04;2.80;;;2.25;;
34896;SDS011;43407;51.828;-2.298;2022-09-09T04:37:32;4.00;;;2.72;;
34896;SDS011;43407;51.828;-2.298;2022-09-09T04:39:58;3.58;;;2.85;;
34896;SDS011;43407;51.828;-2.298;2022-09-09T04:42:34;2.60;;;2.40;;
34896;SDS011;43407;51.828;-2.298;2022-09-09T04:45:03;3.35;;;2.88;;
34896;SDS011;43407;51.828;-2.298;2022-09-09T04:47:29;3.67;;;2.67;;
34896;SDS011;43407;51.828;-2.298;2022-09-09T04:49:54;4.15;;;2.88;;
34896;SDS011;43407;51.828;-2.298;2022-09-09T04:52:27;3.58;;;3.00;;
34896;SDS011;43407;51.828;-2.298;2022-09-09T04:54:53;3.25;;;2.47;;
34896;SDS011;43407;51.828;-2.298;2022-09-09T04:57:19;4.38;;;2.45;;
34896;SDS011;43407;51.828;-2.298;2022-09-09T04:59:44;3.30;;;2.67;;
34896;SDS011;43407;51.828;-2.298;2022-09-09T05:02:20;4.35;;;3.30;;
34896;SDS011;43407;51.828;-2.298;2022-09-09T05:04:48;2.70;;;2.50;;
34896;SDS011;43407;51.828;-2.298;2022-09-09T05:07:19;2.60;;;2.40;;
34896;SDS011;43407;51.828;-2.298;2022-09-09T05:09:44;4.78;;;2.95;;
34896;SDS011;43407;51.828;-2.298;2022-09-09T05:12:20;2.42;;;2.20;;
34896;SDS011;43407;51.828;-2.298;2022-09-09T05:14:47;2.90;;;2.20;;
34896;SDS011;43407;51.828;-2.298;2022-09-09T05:17:12;2.47;;;1.88;;
34896;SDS011;43407;51.828;-2.298;2022-09-09T05:19:38;2.40;;;2.00;;
34896;SDS011;43407;51.828;-2.298;2022-09-09T05:22:04;2.33;;;1.90;;
34896;SDS011;43407;51.828;-2.298;2022-09-09T05:24:41;5.72;;;2.10;;
34896;SDS011;43407;51.828;-2.298;2022-09-09T05:27:30;3.63;;;2.20;;
34896;SDS011;43407;51.828;-2.298;2022-09-09T05:29:56;3.42;;;1.85;;
34896;SDS011;43407;51.828;-2.298;2022-09-09T05:32:25;2.33;;;1.95;;
34896;SDS011;43407;51.828;-2.298;2022-09-09T05:34:53;2.22;;;1.90;;
34896;SDS011;43407;51.828;-2.298;2022-09-09T05:37:18;3.97;;;2.45;;
34896;SDS011;43407;51.828;-2.298;2022-09-09T05:39:48;2.38;;;1.80;;
34896;SDS011;43407;51.828;-2.298;2022-09-09T05:42:19;2.75;;;1.90;;
34896;SDS011;43407;51.828;-2.298;2022-09-09T05:44:44;1.40;;;1.30;;
34896;SDS011;43407;51.828;-2.298;2022-09-09T05:47:27;3.90;;;1.98;;
34896;SDS011;43407;51.828;-2.298;2022-09-09T05:49:56;2.47;;;1.92;;
34896;SDS011;43407;51.828;-2.298;2022-09-09T05:52:24;2.20;;;2.00;;
34896;SDS011;43407;51.828;-2.298;2022-09-09T05:54:52;2.00;;;1.80;;
34896;SDS011;43407;51.828;-2.298;2022-09-09T05:57:22;1.50;;;1.40;;
34896;SDS011;43407;51.828;-2.298;2022-09-09T05:59:47;2.92;;;1.98;;
34896;SDS011;43407;51.828;-2.298;2022-09-09T06:02:13;1.67;;;1.50;;
34896;SDS011;43407;51.828;-2.298;2022-09-09T06:04:46;1.83;;;1.67;;
34896;SDS011;43407;51.828;-2.298;2022-09-09T06:07:14;2.83;;;1.70;;
34896;SDS011;43407;51.828;-2.298;2022-09-09T06:09:42;1.98;;;1.42;;
34896;SDS011;43407;51.828;-2.298;2022-09-09T06:12:12;2.35;;;1.50;;
34896;SDS011;43407;51.828;-2.298;2022-09-09T06:14:58;2.77;;;1.57;;
34896;SDS011;43407;51.828;-2.298;2022-09-09T06:17:27;2.55;;;1.83;;
34896;SDS011;43407;51.828;-2.298;2022-09-09T06:19:55;1.67;;;1.50;;
34896;SDS011;43407;51.828;-2.298;2022-09-09T06:22:23;2.22;;;1.63;;
34896;SDS011;43407;51.828;-2.298;2022-09-09T06:24:48;1.83;;;1.40;;
34896;SDS011;43407;51.828;-2.298;2022-09-09T06:27:14;1.20;;;1.10;;
34896;SDS011;43407;51.828;-2.298;2022-09-09T06:29:39;1.77;;;1.20;;
34896;SDS011;43407;51.828;-2.298;2022-09-09T06:32:05;1.98;;;1.15;;
34896;SDS011;43407;51.828;-2.298;2022-09-09T06:34:36;1.30;;;1.02;;
34896;SDS011;43407;51.828;-2.298;2022-09-09T06:37:04;1.10;;;1.00;;
34896;SDS011;43407;51.828;-2.298;2022-09-09T06:39:31;2.30;;;1.00;;
34896;SDS011;43407;51.828;-2.298;2022-09-09T06:41:57;2.20;;;0.90;;
34896;SDS011;43407;51.828;-2.298;2022-09-09T06:44:23;0.80;;;0.80;;
34896;SDS011;43407;51.828;-2.298;2022-09-09T06:46:51;1.55;;;0.95;;
34896;SDS011;43407;51.828;-2.298;2022-09-09T06:49:19;1.63;;;0.95;;
34896;SDS011;43407;51.828;-2.298;2022-09-09T06:51:44;1.10;;;0.88;;
34896;SDS011;43407;51.828;-2.298;2022-09-09T06:54:11;1.27;;;1.05;;
34896;SDS011;43407;51.828;-2.298;2022-09-09T06:56:38;3.60;;;1.20;;
34896;SDS011;43407;51.828;-2.298;2022-09-09T06:59:08;1.60;;;0.98;;
34896;SDS011;43407;51.828;-2.298;2022-09-09T07:01:38;2.85;;;1.08;;
34896;SDS011;43407;51.828;-2.298;2022-09-09T07:04:11;3.13;;;1.00;;
34896;SDS011;43407;51.828;-2.298;2022-09-09T07:06:39;1.20;;;1.10;;
34896;SDS011;43407;51.828;-2.298;2022-09-09T07:09:08;1.33;;;1.00;;
34896;SDS011;43407;51.828;-2.298;2022-09-09T07:11:42;0.88;;;0.80;;
34896;SDS011;43407;51.828;-2.298;2022-09-09T07:14:11;1.67;;;0.93;;
34896;SDS011;43407;51.828;-2.298;2022-09-09T07:16:39;1.35;;;0.90;;
34896;SDS011;43407;51.828;-2.298;2022-09-09T07:19:05;0.82;;;0.70;;
34896;SDS011;43407;51.828;-2.298;2022-09-09T07:21:34;0.95;;;0.88;;
34896;SDS011;43407;51.828;-2.298;2022-09-09T07:24:00;0.88;;;0.82;;
34896;SDS011;43407;51.828;-2.298;2022-09-09T07:26:26;0.90;;;0.60;;
34896;SDS011;43407;51.828;-2.298;2022-09-09T07:28:53;3.58;;;0.80;;
34896;SDS011;43407;51.828;-2.298;2022-09-09T07:31:20;1.75;;;0.70;;
34896;SDS011;43407;51.828;-2.298;2022-09-09T07:33:48;1.73;;;0.88;;
34896;SDS011;43407;51.828;-2.298;2022-09-09T07:36:14;0.75;;;0.50;;
34896;SDS011;43407;51.828;-2.298;2022-09-09T07:38:42;1.35;;;1.00;;
34896;SDS011;43407;51.828;-2.298;2022-09-09T07:41:13;1.35;;;0.70;;
34896;SDS011;43407;51.828;-2.298;2022-09-09T07:43:44;4.13;;;0.90;;
34896;SDS011;43407;51.828;-2.298;2022-09-09T07:46:11;0.70;;;0.60;;
34896;SDS011;43407;51.828;-2.298;2022-09-09T07:48:38;1.48;;;0.60;;
34896;SDS011;43407;51.828;-2.298;2022-09-09T07:53:34;1.33;;;0.52;;
34896;SDS011;43407;51.828;-2.298;2022-09-09T07:56:08;1.35;;;0.60;;
34896;SDS011;43407;51.828;-2.298;2022-09-09T07:58:36;0.65;;;0.50;;
34896;SDS011;43407;51.828;-2.298;2022-09-09T08:01:09;3.33;;;0.70;;
34896;SDS011;43407;51.828;-2.298;2022-09-09T08:03:40;3.28;;;1.05;;
34896;SDS011;43407;51.828;-2.298;2022-09-09T08:06:06;1.00;;;0.60;;
34896;SDS011;43407;51.828;-2.298;2022-09-09T08:08:35;1.13;;;0.70;;
34896;SDS011;43407;51.828;-2.298;2022-09-09T08:11:09;1.45;;;0.73;;
34896;SDS011;43407;51.828;-2.298;2022-09-09T08:13:36;1.40;;;0.80;;
34896;SDS011;43407;51.828;-2.298;2022-09-09T08:18:55;1.83;;;0.70;;
34896;SDS011;43407;51.828;-2.298;2022-09-09T08:21:25;0.93;;;0.60;;
34896;SDS011;43407;51.828;-2.298;2022-09-09T08:23:53;1.60;;;0.57;;
34896;SDS011;43407;51.828;-2.298;2022-09-09T08:26:25;0.68;;;0.50;;
34896;SDS011;43407;51.828;-2.298;2022-09-09T08:28:53;1.08;;;0.50;;
34896;SDS011;43407;51.828;-2.298;2022-09-09T08:31:31;0.65;;;0.60;;
34896;SDS011;43407;51.828;-2.298;2022-09-09T08:33:57;0.77;;;0.50;;
34896;SDS011;43407;51.828;-2.298;2022-09-09T08:36:31;0.40;;;0.40;;
34896;SDS011;43407;51.828;-2.298;2022-09-09T08:39:01;0.43;;;0.43;;
34896;SDS011;43407;51.828;-2.298;2022-09-09T08:44:17;1.08;;;0.52;;
34896;SDS011;43407;51.828;-2.298;2022-09-09T08:49:35;1.63;;;0.50;;
34896;SDS011;43407;51.828;-2.298;2022-09-09T08:52:14;0.60;;;0.40;;
34896;SDS011;43407;51.828;-2.298;2022-09-09T08:55:05;0.60;;;0.55;;
34896;SDS011;43407;51.828;-2.298;2022-09-09T08:57:49;2.25;;;1.00;;
34896;SDS011;43407;51.828;-2.298;2022-09-09T09:00:16;1.08;;;0.60;;
34896;SDS011;43407;51.828;-2.298;2022-09-09T09:10:56;0.65;;;0.47;;
34896;SDS011;43407;51.828;-2.298;2022-09-09T09:13:32;0.95;;;0.50;;
34896;SDS011;43407;51.828;-2.298;2022-09-09T09:19:04;0.38;;;0.38;;
34896;SDS011;43407;51.828;-2.298;2022-09-09T09:21:39;0.57;;;0.57;;
34896;SDS011;43407;51.828;-2.298;2022-09-09T09:24:30;0.73;;;0.50;;
34896;SDS011;43407;51.828;-2.298;2022-09-09T09:27:21;0.82;;;0.50;;
34896;SDS011;43407;51.828;-2.298;2022-09-09T09:29:54;0.80;;;0.50;;
34896;SDS011;43407;51.828;-2.298;2022-09-09T09:32:23;1.85;;;0.60;;
34896;SDS011;43407;51.828;-2.298;2022-09-09T09:34:56;0.60;;;0.60;;
34896;SDS011;43407;51.828;-2.298;2022-09-09T09:37:28;1.33;;;0.50;;
34896;SDS011;43407;51.828;-2.298;2022-09-09T09:39:55;0.95;;;0.45;;
34896;SDS011;43407;51.828;-2.298;2022-09-09T09:42:21;1.27;;;0.40;;
34896;SDS011;43407;51.828;-2.298;2022-09-09T09:44:47;2.15;;;0.45;;
34896;SDS011;43407;51.828;-2.298;2022-09-09T09:49:39;1.20;;;0.45;;
34896;SDS011;43407;51.828;-2.298;2022-09-09T09:52:15;0.40;;;0.40;;
34896;SDS011;43407;51.828;-2.298;2022-09-09T09:54:51;0.55;;;0.50;;
34896;SDS011;43407;51.828;-2.298;2022-09-09T09:57:17;0.40;;;0.40;;
34896;SDS011;43407;51.828;-2.298;2022-09-09T09:59:43;0.57;;;0.55;;
34896;SDS011;43407;51.828;-2.298;2022-09-09T10:02:20;0.77;;;0.40;;
34896;SDS011;43407;51.828;-2.298;2022-09-09T10:05:04;0.73;;;0.57;;
34896;SDS011;43407;51.828;-2.298;2022-09-09T10:07:34;4.43;;;0.60;;
34896;SDS011;43407;51.828;-2.298;2022-09-09T10:10:02;0.50;;;0.50;;
34896;SDS011;43407;51.828;-2.298;2022-09-09T10:15:34;1.23;;;0.57;;
34896;SDS011;43407;51.828;-2.298;2022-09-09T10:18:15;0.95;;;0.60;;
34896;SDS011;43407;51.828;-2.298;2022-09-09T10:30:22;0.40;;;0.40;;
34896;SDS011;43407;51.828;-2.298;2022-09-09T10:37:46;0.55;;;0.40;;
34896;SDS011;43407;51.828;-2.298;2022-09-09T10:43:11;0.90;;;0.50;;
34896;SDS011;43407;51.828;-2.298;2022-09-09T10:45:48;0.50;;;0.50;;
34896;SDS011;43407;51.828;-2.298;2022-09-09T10:54:19;1.17;;;0.45;;
34896;SDS011;43407;51.828;-2.298;2022-09-09T10:57:05;0.50;;;0.50;;
34896;SDS011;43407;51.828;-2.298;2022-09-09T10:59:58;0.73;;;0.50;;
34896;SDS011;43407;51.828;-2.298;2022-09-09T11:02:29;0.50;;;0.50;;
34896;SDS011;43407;51.828;-2.298;2022-09-09T11:07:50;0.82;;;0.43;;
34896;SDS011;43407;51.828;-2.298;2022-09-09T11:10:24;0.93;;;0.52;;
34896;SDS011;43407;51.828;-2.298;2022-09-09T11:13:05;0.55;;;0.50;;
34896;SDS011;43407;51.828;-2.298;2022-09-09T11:15:39;0.85;;;0.60;;
34896;SDS011;43407;51.828;-2.298;2022-09-09T11:18:10;1.10;;;0.50;;
34896;SDS011;43407;51.828;-2.298;2022-09-09T11:20:38;1.10;;;0.35;;
34896;SDS011;43407;51.828;-2.298;2022-09-09T11:23:11;0.80;;;0.50;;
34896;SDS011;43407;51.828;-2.298;2022-09-09T11:25:40;0.70;;;0.40;;
34896;SDS011;43407;51.828;-2.298;2022-09-09T11:34:30;0.38;;;0.30;;
34896;SDS011;43407;51.828;-2.298;2022-09-09T11:37:08;0.68;;;0.57;;
34896;SDS011;43407;51.828;-2.298;2022-09-09T11:42:18;0.52;;;0.30;;
34896;SDS011;43407;51.828;-2.298;2022-09-09T11:44:45;0.30;;;0.30;;
34896;SDS011;43407;51.828;-2.298;2022-09-09T11:50:33;0.50;;;0.30;;
34896;SDS011;43407;51.828;-2.298;2022-09-09T11:56:30;0.38;;;0.30;;
34896;SDS011;43407;51.828;-2.298;2022-09-09T11:59:06;0.50;;;0.47;;
34896;SDS011;43407;51.828;-2.298;2022-09-09T12:01:56;0.77;;;0.47;;
34896;SDS011;43407;51.828;-2.298;2022-09-09T12:04:31;0.60;;;0.40;;
34896;SDS011;43407;51.828;-2.298;2022-09-09T12:07:00;0.40;;;0.40;;
34896;SDS011;43407;51.828;-2.298;2022-09-09T12:09:45;0.68;;;0.47;;
34896;SDS011;43407;51.828;-2.298;2022-09-09T12:17:31;0.52;;;0.40;;
34896;SDS011;43407;51.828;-2.298;2022-09-09T12:25:08;0.40;;;0.20;;
34896;SDS011;43407;51.828;-2.298;2022-09-09T12:27:41;0.38;;;0.38;;
34896;SDS011;43407;51.828;-2.298;2022-09-09T12:30:11;0.45;;;0.30;;
34896;SDS011;43407;51.828;-2.298;2022-09-09T12:32:39;1.10;;;0.30;;
34896;SDS011;43407;51.828;-2.298;2022-09-09T12:37:38;0.70;;;0.32;;
34896;SDS011;43407;51.828;-2.298;2022-09-09T12:40:21;1.88;;;0.30;;
34896;SDS011;43407;51.828;-2.298;2022-09-09T12:42:48;0.60;;;0.32;;
34896;SDS011;43407;51.828;-2.298;2022-09-09T12:45:25;0.65;;;0.43;;
34896;SDS011;43407;51.828;-2.298;2022-09-09T12:50:21;1.33;;;0.80;;
34896;SDS011;43407;51.828;-2.298;2022-09-09T12:52:50;0.43;;;0.40;;
34896;SDS011;43407;51.828;-2.298;2022-09-09T12:55:19;0.65;;;0.40;;
34896;SDS011;43407;51.828;-2.298;2022-09-09T12:57:46;0.65;;;0.43;;
34896;SDS011;43407;51.828;-2.298;2022-09-09T13:00:16;0.93;;;0.60;;
34896;SDS011;43407;51.828;-2.298;2022-09-09T13:02:48;1.05;;;0.40;;
34896;SDS011;43407;51.828;-2.298;2022-09-09T13:05:19;1.08;;;0.40;;
34896;SDS011;43407;51.828;-2.298;2022-09-09T13:07:47;0.65;;;0.30;;
34896;SDS011;43407;51.828;-2.298;2022-09-09T13:10:13;0.43;;;0.43;;
34896;SDS011;43407;51.828;-2.298;2022-09-09T13:12:43;0.55;;;0.50;;
34896;SDS011;43407;51.828;-2.298;2022-09-09T13:15:11;0.77;;;0.50;;
34896;SDS011;43407;51.828;-2.298;2022-09-09T13:17:52;0.38;;;0.38;;
34896;SDS011;43407;51.828;-2.298;2022-09-09T13:20:21;2.13;;;0.50;;
34896;SDS011;43407;51.828;-2.298;2022-09-09T13:22:47;0.35;;;0.30;;
34896;SDS011;43407;51.828;-2.298;2022-09-09T13:25:27;1.17;;;0.50;;
34896;SDS011;43407;51.828;-2.298;2022-09-09T13:27:55;0.45;;;0.30;;
34896;SDS011;43407;51.828;-2.298;2022-09-09T13:30:30;0.30;;;0.30;;
34896;SDS011;43407;51.828;-2.298;2022-09-09T13:35:48;0.40;;;0.30;;
34896;SDS011;43407;51.828;-2.298;2022-09-09T13:38:21;0.50;;;0.40;;
34896;SDS011;43407;51.828;-2.298;2022-09-09T13:40:58;0.93;;;0.40;;
34896;SDS011;43407;51.828;-2.298;2022-09-09T13:43:29;0.98;;;0.40;;
34896;SDS011;43407;51.828;-2.298;2022-09-09T13:46:01;0.43;;;0.40;;
34896;SDS011;43407;51.828;-2.298;2022-09-09T13:48:28;1.05;;;0.43;;
34896;SDS011;43407;51.828;-2.298;2022-09-09T13:50:56;0.45;;;0.40;;
34896;SDS011;43407;51.828;-2.298;2022-09-09T13:53:22;0.75;;;0.50;;
34896;SDS011;43407;51.828;-2.298;2022-09-09T13:55:50;0.50;;;0.30;;
34896;SDS011;43407;51.828;-2.298;2022-09-09T13:58:19;0.32;;;0.30;;
34896;SDS011;43407;51.828;-2.298;2022-09-09T14:00:45;1.83;;;0.40;;
34896;SDS011;43407;51.828;-2.298;2022-09-09T14:03:11;0.60;;;0.30;;
34896;SDS011;43407;51.828;-2.298;2022-09-09T14:05:37;1.02;;;0.40;;
34896;SDS011;43407;51.828;-2.298;2022-09-09T14:08:06;0.57;;;0.40;;
34896;SDS011;43407;51.828;-2.298;2022-09-09T14:10:32;0.38;;;0.30;;
34896;SDS011;43407;51.828;-2.298;2022-09-09T14:13:02;0.50;;;0.50;;
34896;SDS011;43407;51.828;-2.298;2022-09-09T14:15:28;0.52;;;0.35;;
34896;SDS011;43407;51.828;-2.298;2022-09-09T14:17:56;1.52;;;0.60;;
34896;SDS011;43407;51.828;-2.298;2022-09-09T14:20:23;1.23;;;0.47;;
34896;SDS011;43407;51.828;-2.298;2022-09-09T14:22:49;0.50;;;0.40;;
34896;SDS011;43407;51.828;-2.298;2022-09-09T14:25:15;0.57;;;0.50;;
34896;SDS011;43407;51.828;-2.298;2022-09-09T14:27:45;0.45;;;0.43;;
34896;SDS011;43407;51.828;-2.298;2022-09-09T14:30:11;0.52;;;0.52;;
34896;SDS011;43407;51.828;-2.298;2022-09-09T14:32:37;0.50;;;0.50;;
34896;SDS011;43407;51.828;-2.298;2022-09-09T14:35:05;0.65;;;0.55;;
34896;SDS011;43407;51.828;-2.298;2022-09-09T14:37:32;1.88;;;0.60;;
34896;SDS011;43407;51.828;-2.298;2022-09-09T14:39:58;0.40;;;0.40;;
34896;SDS011;43407;51.828;-2.298;2022-09-09T14:42:26;1.73;;;0.70;;
34896;SDS011;43407;51.828;-2.298;2022-09-09T14:44:51;0.60;;;0.50;;
34896;SDS011;43407;51.828;-2.298;2022-09-09T14:47:24;0.50;;;0.50;;
34896;SDS011;43407;51.828;-2.298;2022-09-09T14:49:53;0.65;;;0.50;;
34896;SDS011;43407;51.828;-2.298;2022-09-09T14:52:20;0.65;;;0.52;;
34896;SDS011;43407;51.828;-2.298;2022-09-09T14:54:46;1.13;;;0.50;;
34896;SDS011;43407;51.828;-2.298;2022-09-09T14:57:14;0.65;;;0.40;;
34896;SDS011;43407;51.828;-2.298;2022-09-09T14:59:40;1.42;;;0.63;;
34896;SDS011;43407;51.828;-2.298;2022-09-09T15:02:07;0.93;;;0.68;;
34896;SDS011;43407;51.828;-2.298;2022-09-09T15:04:33;0.73;;;0.55;;
34896;SDS011;43407;51.828;-2.298;2022-09-09T15:07:01;1.23;;;0.52;;
34896;SDS011;43407;51.828;-2.298;2022-09-09T15:09:30;1.98;;;0.55;;
34896;SDS011;43407;51.828;-2.298;2022-09-09T15:11:55;0.50;;;0.50;;
34896;SDS011;43407;51.828;-2.298;2022-09-09T15:14:23;1.20;;;0.50;;
34896;SDS011;43407;51.828;-2.298;2022-09-09T15:16:51;0.40;;;0.40;;
34896;SDS011;43407;51.828;-2.298;2022-09-09T15:19:16;0.55;;;0.47;;
34896;SDS011;43407;51.828;-2.298;2022-09-09T15:21:42;2.13;;;0.40;;
34896;SDS011;43407;51.828;-2.298;2022-09-09T15:24:07;2.05;;;0.60;;
34896;SDS011;43407;51.828;-2.298;2022-09-09T15:26:33;0.35;;;0.35;;
34896;SDS011;43407;51.828;-2.298;2022-09-09T15:29:09;0.40;;;0.40;;
34896;SDS011;43407;51.828;-2.298;2022-09-09T15:31:34;1.55;;;0.40;;
34896;SDS011;43407;51.828;-2.298;2022-09-09T15:34:01;0.47;;;0.38;;
34896;SDS011;43407;51.828;-2.298;2022-09-09T15:38:57;1.83;;;0.30;;
34896;SDS011;43407;51.828;-2.298;2022-09-09T15:41:23;0.77;;;0.30;;
34896;SDS011;43407;51.828;-2.298;2022-09-09T15:43:52;0.20;;;0.20;;
34896;SDS011;43407;51.828;-2.298;2022-09-09T15:46:29;0.30;;;0.30;;
34896;SDS011;43407;51.828;-2.298;2022-09-09T15:49:09;0.22;;;0.20;;
34896;SDS011;43407;51.828;-2.298;2022-09-09T15:51:35;0.20;;;0.20;;
34896;SDS011;43407;51.828;-2.298;2022-09-09T15:54:16;0.30;;;0.20;;
34896;SDS011;43407;51.828;-2.298;2022-09-09T15:56:49;1.65;;;0.40;;
34896;SDS011;43407;51.828;-2.298;2022-09-09T15:59:19;1.77;;;0.30;;
34896;SDS011;43407;51.828;-2.298;2022-09-09T16:01:50;1.50;;;0.30;;
34896;SDS011;43407;51.828;-2.298;2022-09-09T16:04:25;0.50;;;0.28;;
34896;SDS011;43407;51.828;-2.298;2022-09-09T16:09:42;0.32;;;0.30;;
34896;SDS011;43407;51.828;-2.298;2022-09-09T16:12:10;0.38;;;0.35;;
34896;SDS011;43407;51.828;-2.298;2022-09-09T16:15:00;0.30;;;0.30;;
34896;SDS011;43407;51.828;-2.298;2022-09-09T16:17:31;0.40;;;0.30;;
34896;SDS011;43407;51.828;-2.298;2022-09-09T16:20:03;0.30;;;0.30;;
34896;SDS011;43407;51.828;-2.298;2022-09-09T16:22:33;0.35;;;0.35;;
34896;SDS011;43407;51.828;-2.298;2022-09-09T16:24:59;0.60;;;0.30;;
34896;SDS011;43407;51.828;-2.298;2022-09-09T16:27:25;0.43;;;0.35;;
34896;SDS011;43407;51.828;-2.298;2022-09-09T16:29:59;0.50;;;0.40;;
34896;SDS011;43407;51.828;-2.298;2022-09-09T16:32:34;0.25;;;0.25;;
34896;SDS011;43407;51.828;-2.298;2022-09-09T16:35:02;0.40;;;0.40;;
34896;SDS011;43407;51.828;-2.298;2022-09-09T16:37:40;0.35;;;0.35;;
34896;SDS011;43407;51.828;-2.298;2022-09-09T16:40:09;0.45;;;0.30;;
34896;SDS011;43407;51.828;-2.298;2022-09-09T16:42:36;0.30;;;0.30;;
34896;SDS011;43407;51.828;-2.298;2022-09-09T16:45:02;0.57;;;0.38;;
34896;SDS011;43407;51.828;-2.298;2022-09-09T16:47:28;0.43;;;0.43;;
34896;SDS011;43407;51.828;-2.298;2022-09-09T16:49:54;0.43;;;0.30;;
34896;SDS011;43407;51.828;-2.298;2022-09-09T16:52:20;0.10;;;0.10;;
34896;SDS011;43407;51.828;-2.298;2022-09-09T16:54:46;0.20;;;0.20;;
34896;SDS011;43407;51.828;-2.298;2022-09-09T16:57:11;1.80;;;0.35;;
34896;SDS011;43407;51.828;-2.298;2022-09-09T16:59:37;0.20;;;0.20;;
34896;SDS011;43407;51.828;-2.298;2022-09-09T17:02:03;0.28;;;0.28;;
34896;SDS011;43407;51.828;-2.298;2022-09-09T17:04:29;0.30;;;0.30;;
34896;SDS011;43407;51.828;-2.298;2022-09-09T17:07:01;0.30;;;0.30;;
34896;SDS011;43407;51.828;-2.298;2022-09-09T17:09:50;0.28;;;0.28;;
34896;SDS011;43407;51.828;-2.298;2022-09-09T17:12:15;0.20;;;0.20;;